Time;durP1;ratioP1;P1;durP2;ratioP2;P2;SDS_P1;SDS_P2;PMS_P1;PMS_P2;Temp;Humidity;BMP_temperature;BMP_pressure;BME280_temperature;BME280_humidity;BME280_pressure;Samples;Min_cycle;Max_cycle;Signal;HPM_P1;HPM_P2
2023/12/22 00:00:48;;;;;;;5.97;2.20;;;7.00;99.90;;;;;;4993518;28;20218;-74
2023/12/22 00:03:15;;;;;;;5.73;1.63;;;7.00;99.90;;;;;;4991992;28;20885;-74
2023/12/22 00:05:41;;;;;;;7.03;2.30;;;7.00;99.90;;;;;;4990679;28;20542;-74
2023/12/22 00:08:06;;;;;;;6.43;3.13;;;6.90;99.90;;;;;;4991208;28;20447;-74
2023/12/22 00:10:32;;;;;;;3.30;1.70;;;6.90;99.90;;;;;;4990920;28;20237;-74
2023/12/22 00:12:58;;;;;;;5.73;1.87;;;6.90;99.90;;;;;;4991964;28;20188;-74
2023/12/22 00:15:23;;;;;;;5.37;1.80;;;6.90;99.90;;;;;;4990090;28;20227;-74
2023/12/22 00:17:49;;;;;;;6.17;1.53;;;6.90;99.90;;;;;;4989479;28;20713;-74
2023/12/22 00:20:15;;;;;;;6.70;1.73;;;7.00;99.90;;;;;;4990792;28;20231;-74
2023/12/22 00:22:40;;;;;;;3.63;1.57;;;6.90;99.90;;;;;;4991194;28;20266;-74
2023/12/22 00:25:07;;;;;;;4.83;1.80;;;7.00;99.90;;;;;;4990380;28;20261;-74
2023/12/22 00:27:33;;;;;;;5.70;1.73;;;6.90;99.90;;;;;;4991459;28;20221;-75
2023/12/22 00:29:59;;;;;;;5.87;1.77;;;6.90;99.90;;;;;;4990827;28;20794;-75
2023/12/22 00:32:25;;;;;;;10.30;2.00;;;6.90;99.90;;;;;;4989768;28;21111;-74
2023/12/22 00:34:50;;;;;;;6.93;1.80;;;6.90;99.90;;;;;;4990191;28;20638;-74
2023/12/22 00:37:16;;;;;;;2.87;1.57;;;6.90;99.90;;;;;;4989821;28;20192;-75
2023/12/22 00:39:42;;;;;;;6.17;1.67;;;6.90;99.90;;;;;;4996542;28;20207;-73
2023/12/22 00:42:08;;;;;;;4.67;1.67;;;6.90;99.90;;;;;;4995387;28;20211;-75
2023/12/22 00:44:33;;;;;;;4.63;2.10;;;6.90;99.90;;;;;;4991119;28;20179;-74
2023/12/22 00:46:59;;;;;;;4.57;1.57;;;6.90;99.90;;;;;;4988898;28;20243;-73
2023/12/22 00:49:24;;;;;;;4.17;2.00;;;6.90;99.90;;;;;;4990438;28;20219;-75
2023/12/22 00:51:50;;;;;;;5.00;2.00;;;6.90;99.90;;;;;;4990244;28;20541;-75
2023/12/22 00:54:16;;;;;;;5.07;2.10;;;6.90;99.90;;;;;;4992194;28;20278;-74
2023/12/22 00:56:42;;;;;;;4.43;1.87;;;6.90;99.90;;;;;;4987841;28;20295;-74
2023/12/22 00:59:07;;;;;;;2.10;1.47;;;6.90;99.90;;;;;;4991087;28;20241;-74
2023/12/22 01:01:33;;;;;;;8.47;2.13;;;6.90;99.90;;;;;;4990003;28;20233;-74
2023/12/22 01:03:59;;;;;;;6.77;2.80;;;6.90;99.90;;;;;;4988929;28;20244;-74
2023/12/22 01:06:24;;;;;;;9.40;2.47;;;7.00;99.90;;;;;;4989419;28;20899;-74
2023/12/22 01:08:50;;;;;;;9.60;2.40;;;7.00;99.90;;;;;;4990335;28;20289;-74
2023/12/22 01:11:17;;;;;;;5.83;1.87;;;7.00;99.90;;;;;;4989574;28;20657;-74
2023/12/22 01:13:43;;;;;;;9.90;3.00;;;6.90;99.90;;;;;;4989357;28;20304;-74
2023/12/22 01:16:09;;;;;;;5.80;2.13;;;6.90;99.90;;;;;;4989343;28;20462;-74
2023/12/22 01:18:35;;;;;;;5.30;2.97;;;6.90;99.90;;;;;;4993118;28;20513;-74
2023/12/22 01:21:00;;;;;;;4.00;1.37;;;6.90;99.90;;;;;;4996248;28;20214;-73
2023/12/22 01:23:26;;;;;;;6.90;2.27;;;6.90;99.90;;;;;;4997486;28;20195;-74
2023/12/22 01:25:52;;;;;;;6.77;2.13;;;6.90;99.90;;;;;;4995424;28;20220;-74
2023/12/22 01:28:18;;;;;;;5.07;2.00;;;6.90;99.90;;;;;;4996339;28;20602;-74
2023/12/22 01:30:43;;;;;;;11.00;2.50;;;6.90;99.90;;;;;;4994683;28;20477;-74
2023/12/22 01:33:09;;;;;;;7.93;2.10;;;6.90;99.90;;;;;;4995588;28;20241;-74
2023/12/22 01:35:35;;;;;;;7.40;2.40;;;7.00;99.90;;;;;;4981698;28;20248;-74
2023/12/22 01:38:00;;;;;;;6.10;2.10;;;7.00;99.90;;;;;;4996322;28;20195;-74
2023/12/22 01:40:26;;;;;;;8.60;2.60;;;7.00;99.90;;;;;;4998015;28;20195;-74
2023/12/22 01:42:52;;;;;;;11.20;3.23;;;7.00;99.90;;;;;;4994555;28;20274;-74
2023/12/22 01:45:17;;;;;;;4.00;1.13;;;7.00;99.90;;;;;;4994539;28;20218;-74
2023/12/22 01:47:46;;;;;;;2.43;1.10;;;7.00;99.90;;;;;;4996213;28;20208;-74
2023/12/22 01:50:12;;;;;;;3.77;0.93;;;7.00;99.90;;;;;;5010964;28;20548;-73
2023/12/22 01:52:41;;;;;;;7.33;1.03;;;7.00;99.90;;;;;;4997596;28;20422;-74
2023/12/22 01:55:12;;;;;;;4.40;0.90;;;7.00;99.90;;;;;;4994649;28;20442;-74
2023/12/22 01:57:40;;;;;;;3.90;0.90;;;6.90;99.90;;;;;;4978765;28;20788;-74
2023/12/22 02:00:08;;;;;;;1.63;0.60;;;6.90;99.90;;;;;;4995334;28;20536;-74
2023/12/22 02:02:34;;;;;;;3.83;0.77;;;6.80;99.90;;;;;;4996424;28;20423;-74
2023/12/22 02:05:00;;;;;;;1.60;0.70;;;6.90;99.90;;;;;;4995168;28;20423;-74
2023/12/22 02:07:26;;;;;;;2.60;0.40;;;6.80;99.90;;;;;;4998023;28;20207;-74
2023/12/22 02:09:52;;;;;;;4.00;0.80;;;6.80;99.90;;;;;;4995800;28;20192;-74
2023/12/22 02:12:17;;;;;;;2.47;1.27;;;6.80;99.90;;;;;;4996252;28;20507;-74
2023/12/22 02:14:44;;;;;;;2.23;0.60;;;6.80;99.90;;;;;;4997946;28;20183;-74
2023/12/22 02:17:28;;;;;;;1.63;0.80;;;6.80;99.90;;;;;;4995123;28;20904;-74
2023/12/22 02:19:56;;;;;;;2.60;0.87;;;6.70;99.90;;;;;;4996451;28;20444;-74
2023/12/22 02:22:21;;;;;;;3.60;0.60;;;6.70;99.90;;;;;;4996998;28;20543;-74
2023/12/22 02:24:47;;;;;;;3.57;0.60;;;6.70;99.90;;;;;;4997987;28;20546;-74
2023/12/22 02:27:28;;;;;;;3.90;0.87;;;6.70;99.90;;;;;;4995852;28;20215;-74
2023/12/22 02:30:13;;;;;;;2.40;0.90;;;6.70;99.90;;;;;;4994800;28;20261;-74
2023/12/22 02:32:43;;;;;;;2.53;1.30;;;6.80;99.90;;;;;;4997888;28;21022;-74
2023/12/22 02:35:16;;;;;;;2.23;1.00;;;6.70;99.90;;;;;;4996665;28;20491;-74
2023/12/22 02:37:45;;;;;;;2.40;1.17;;;6.70;99.90;;;;;;4997696;28;20430;-74
2023/12/22 02:40:11;;;;;;;4.40;1.00;;;6.70;99.90;;;;;;4995619;28;20427;-74
2023/12/22 02:42:38;;;;;;;1.93;0.60;;;6.80;99.90;;;;;;4996838;28;20889;-74
2023/12/22 02:45:05;;;;;;;2.70;1.00;;;6.80;99.90;;;;;;4997373;28;20443;-74
2023/12/22 02:47:33;;;;;;;2.23;0.90;;;6.80;99.90;;;;;;4997351;28;20479;-74
2023/12/22 02:49:59;;;;;;;3.90;1.30;;;6.70;99.90;;;;;;4996346;28;20495;-74
2023/12/22 02:52:25;;;;;;;3.50;1.20;;;6.70;99.90;;;;;;4996572;28;20445;-74
2023/12/22 02:54:50;;;;;;;3.23;1.07;;;6.70;99.90;;;;;;4995273;28;20435;-74
2023/12/22 02:57:16;;;;;;;8.07;1.37;;;6.70;99.90;;;;;;4996122;28;20430;-74
2023/12/22 02:59:42;;;;;;;4.80;1.00;;;6.70;99.90;;;;;;4998801;28;20283;-74
2023/12/22 03:02:07;;;;;;;2.00;1.10;;;6.70;99.90;;;;;;4994939;28;20190;-75
2023/12/22 03:04:33;;;;;;;3.03;1.43;;;6.70;99.90;;;;;;4998741;28;20183;-74
2023/12/22 03:06:59;;;;;;;5.00;1.60;;;6.60;99.90;;;;;;4996057;28;20251;-75
2023/12/22 03:09:24;;;;;;;3.17;1.70;;;6.70;99.90;;;;;;4980252;28;20744;-74
2023/12/22 03:11:54;;;;;;;2.83;1.30;;;6.70;99.90;;;;;;4997209;28;20184;-75
2023/12/22 03:14:20;;;;;;;5.80;1.27;;;6.70;99.90;;;;;;4995227;28;20243;-74
2023/12/22 03:16:46;;;;;;;4.40;1.23;;;6.70;99.90;;;;;;4999760;28;20808;-74
2023/12/22 03:19:11;;;;;;;7.13;1.70;;;6.70;99.90;;;;;;4996570;28;20439;-74
2023/12/22 03:21:37;;;;;;;6.27;1.10;;;6.70;99.90;;;;;;5000890;28;20580;-75
2023/12/22 03:24:03;;;;;;;4.53;0.97;;;6.70;99.90;;;;;;4996086;28;20329;-74
2023/12/22 03:26:28;;;;;;;4.40;1.17;;;6.70;99.90;;;;;;4998434;28;20223;-74
2023/12/22 03:28:54;;;;;;;5.07;1.17;;;6.70;99.90;;;;;;4996217;28;20192;-74
2023/12/22 03:31:20;;;;;;;6.73;1.67;;;6.80;99.90;;;;;;4996063;28;20203;-74
2023/12/22 03:33:45;;;;;;;9.03;1.87;;;6.80;99.90;;;;;;4997982;28;20210;-74
2023/12/22 03:36:11;;;;;;;5.23;1.40;;;6.80;99.90;;;;;;4996403;28;20192;-74
2023/12/22 03:38:37;;;;;;;4.27;1.30;;;6.80;99.90;;;;;;4999255;28;20347;-74
2023/12/22 03:41:03;;;;;;;5.20;1.30;;;6.80;99.90;;;;;;4996665;28;20244;-74
2023/12/22 03:43:31;;;;;;;5.50;1.67;;;6.80;99.90;;;;;;4999386;28;20616;-75
2023/12/22 03:45:56;;;;;;;7.47;1.90;;;6.80;99.90;;;;;;4995356;28;20226;-74
2023/12/22 03:48:22;;;;;;;3.87;1.23;;;6.80;99.90;;;;;;4996889;28;20864;-75
2023/12/22 03:50:48;;;;;;;5.60;2.03;;;6.80;99.90;;;;;;4998457;28;20256;-74
2023/12/22 03:53:13;;;;;;;4.53;1.60;;;6.80;99.90;;;;;;4996605;28;20188;-74
2023/12/22 03:55:39;;;;;;;4.87;1.43;;;6.80;99.90;;;;;;4985002;28;20252;-74
2023/12/22 03:58:07;;;;;;;5.53;1.30;;;6.80;99.90;;;;;;4999531;28;20235;-74
2023/12/22 04:00:33;;;;;;;5.63;1.43;;;6.80;99.90;;;;;;4987078;28;20573;-74
2023/12/22 04:02:59;;;;;;;4.47;1.80;;;6.80;99.90;;;;;;5000188;28;20884;-74
2023/12/22 04:05:24;;;;;;;5.53;1.90;;;6.80;99.90;;;;;;5001475;28;20438;-74
2023/12/22 04:07:50;;;;;;;10.47;1.77;;;6.80;99.90;;;;;;5000673;28;20700;-74
2023/12/22 04:10:19;;;;;;;7.73;2.70;;;6.80;99.90;;;;;;4998549;28;20217;-74
2023/12/22 04:12:45;;;;;;;10.90;1.67;;;6.90;99.90;;;;;;5003425;28;20241;-74
2023/12/22 04:15:11;;;;;;;9.07;2.60;;;6.90;99.90;;;;;;5000054;28;20884;-74
2023/12/22 04:17:36;;;;;;;6.00;1.70;;;6.90;99.90;;;;;;5002158;28;20863;-74
2023/12/22 04:20:02;;;;;;;7.70;1.50;;;6.90;99.90;;;;;;5000186;28;20551;-74
2023/12/22 04:22:28;;;;;;;7.87;2.10;;;6.90;99.90;;;;;;5005583;28;20195;-74
2023/12/22 04:24:54;;;;;;;6.37;1.80;;;6.90;99.90;;;;;;4993231;28;20427;-73
2023/12/22 04:27:19;;;;;;;7.90;1.77;;;6.90;99.90;;;;;;4992100;28;20222;-74
2023/12/22 04:29:45;;;;;;;6.37;1.37;;;6.80;99.90;;;;;;4992179;28;20199;-74
2023/12/22 04:32:10;;;;;;;5.07;1.53;;;6.80;99.90;;;;;;4992960;28;20199;-74
2023/12/22 04:34:36;;;;;;;4.83;1.60;;;6.70;99.90;;;;;;4992965;28;20731;-74
2023/12/22 04:37:02;;;;;;;2.40;0.90;;;6.70;99.90;;;;;;4992700;28;20187;-74
2023/12/22 04:39:27;;;;;;;3.40;1.10;;;6.70;99.90;;;;;;4992891;28;20192;-74
2023/12/22 04:41:53;;;;;;;2.63;1.20;;;6.60;99.90;;;;;;4993037;28;20395;-74
2023/12/22 04:44:19;;;;;;;3.53;1.17;;;6.60;99.90;;;;;;4992852;28;20194;-74
2023/12/22 04:46:44;;;;;;;3.83;2.53;;;6.60;99.90;;;;;;4993048;28;20227;-74
2023/12/22 04:49:10;;;;;;;4.80;1.13;;;6.60;99.90;;;;;;4992962;28;20195;-74
2023/12/22 04:51:36;;;;;;;1.40;0.80;;;6.60;99.90;;;;;;4992853;28;20184;-74
2023/12/22 04:54:01;;;;;;;1.90;0.77;;;6.50;99.90;;;;;;4991995;28;20199;-74
2023/12/22 04:56:27;;;;;;;2.97;0.87;;;6.50;99.90;;;;;;4992612;28;20261;-74
2023/12/22 04:58:53;;;;;;;1.10;0.73;;;6.50;99.90;;;;;;4991817;28;20187;-74
2023/12/22 05:01:19;;;;;;;2.97;0.83;;;6.50;99.90;;;;;;4992186;28;20233;-74
2023/12/22 05:03:45;;;;;;;1.80;0.60;;;6.40;99.90;;;;;;4992818;28;20214;-74
2023/12/22 05:06:10;;;;;;;2.23;0.70;;;6.40;99.90;;;;;;4991763;28;20834;-74
2023/12/22 05:08:36;;;;;;;1.07;0.77;;;6.40;99.90;;;;;;4993081;28;20199;-73
2023/12/22 05:11:02;;;;;;;2.50;1.00;;;6.40;99.90;;;;;;4991509;28;20809;-74
2023/12/22 05:13:27;;;;;;;1.17;0.80;;;6.40;99.90;;;;;;4991725;28;20253;-74
2023/12/22 05:15:53;;;;;;;2.30;0.67;;;6.40;99.90;;;;;;4992325;28;20203;-74
2023/12/22 05:18:18;;;;;;;4.73;0.90;;;6.30;99.90;;;;;;4992253;28;20265;-74
2023/12/22 05:20:44;;;;;;;4.17;0.90;;;6.30;99.90;;;;;;4993700;28;20190;-74
2023/12/22 05:23:10;;;;;;;4.27;1.13;;;6.30;99.90;;;;;;4995884;28;20191;-74
2023/12/22 05:25:36;;;;;;;4.80;1.27;;;6.30;99.90;;;;;;4991784;28;20419;-74
2023/12/22 05:28:02;;;;;;;3.40;1.63;;;6.30;99.90;;;;;;4992494;28;20195;-74
2023/12/22 05:30:27;;;;;;;1.30;0.77;;;6.30;99.90;;;;;;4992846;28;20185;-74
2023/12/22 05:32:54;;;;;;;2.40;0.90;;;6.30;99.90;;;;;;4992400;28;20301;-74
2023/12/22 05:35:20;;;;;;;4.53;1.07;;;6.30;99.90;;;;;;4991802;28;20202;-74
2023/12/22 05:37:47;;;;;;;1.97;0.80;;;6.30;99.90;;;;;;4992076;28;20794;-74
2023/12/22 05:40:13;;;;;;;2.30;1.07;;;6.40;99.90;;;;;;4991718;28;20453;-74
2023/12/22 05:42:39;;;;;;;1.83;0.87;;;6.40;99.90;;;;;;4993779;28;20430;-74
2023/12/22 05:45:06;;;;;;;3.40;0.93;;;6.40;99.90;;;;;;4992860;28;20434;-74
2023/12/22 05:47:32;;;;;;;2.73;0.90;;;6.40;99.90;;;;;;4992753;28;21677;-74
2023/12/22 05:49:58;;;;;;;6.47;1.17;;;6.40;99.90;;;;;;4992701;28;20515;-74
2023/12/22 05:52:24;;;;;;;6.33;1.47;;;6.40;99.90;;;;;;4986596;28;20473;-74
2023/12/22 05:54:49;;;;;;;2.57;1.00;;;6.40;99.90;;;;;;4987356;28;20541;-74
2023/12/22 05:57:15;;;;;;;4.00;0.83;;;6.40;99.90;;;;;;4982453;28;20186;-74
2023/12/22 05:59:41;;;;;;;4.93;1.23;;;6.50;99.90;;;;;;4990535;28;20207;-74
2023/12/22 06:02:06;;;;;;;4.00;0.80;;;6.50;99.90;;;;;;4989499;28;20184;-74
2023/12/22 06:04:32;;;;;;;4.50;1.00;;;6.50;99.90;;;;;;4987771;28;20184;-74
2023/12/22 06:06:59;;;;;;;3.80;1.30;;;6.50;99.90;;;;;;4975769;28;20230;-74
2023/12/22 06:09:24;;;;;;;2.70;1.27;;;6.50;99.90;;;;;;4989843;28;20612;-74
2023/12/22 06:11:50;;;;;;;5.30;1.33;;;6.50;99.90;;;;;;4991354;28;20438;-74
2023/12/22 06:14:16;;;;;;;8.17;1.77;;;6.50;99.90;;;;;;4991652;28;20256;-74
2023/12/22 06:16:41;;;;;;;4.47;1.50;;;6.50;99.90;;;;;;4992537;28;20198;-74
2023/12/22 06:19:07;;;;;;;2.30;1.33;;;6.50;99.90;;;;;;4992888;28;20192;-74
2023/12/22 06:21:33;;;;;;;4.60;1.30;;;6.50;99.90;;;;;;4993911;28;20180;-74
2023/12/22 06:23:58;;;;;;;4.67;1.47;;;6.50;99.90;;;;;;4993270;28;20674;-73
2023/12/22 06:26:24;;;;;;;4.17;1.63;;;6.50;99.90;;;;;;4991308;28;20229;-74
2023/12/22 06:28:50;;;;;;;4.30;1.47;;;6.50;99.90;;;;;;4993207;28;20198;-74
2023/12/22 06:31:20;;;;;;;3.53;1.47;;;6.50;99.90;;;;;;4990511;28;20206;-74
2023/12/22 06:33:47;;;;;;;3.73;1.43;;;6.50;99.90;;;;;;4989488;28;20180;-74
2023/12/22 06:36:20;;;;;;;5.10;1.93;;;6.60;99.90;;;;;;4992146;28;21378;-74
2023/12/22 06:38:47;;;;;;;4.20;1.47;;;6.60;99.90;;;;;;4993837;28;20430;-73
2023/12/22 06:41:23;;;;;;;4.40;1.83;;;6.60;99.90;;;;;;4990758;28;20460;-74
2023/12/22 06:43:50;;;;;;;4.50;2.30;;;6.60;99.90;;;;;;4993231;28;20517;-74
2023/12/22 06:46:17;;;;;;;5.77;1.40;;;6.60;99.90;;;;;;4989927;28;20482;-74
2023/12/22 06:48:43;;;;;;;4.87;1.60;;;6.60;99.90;;;;;;4991431;28;20429;-74
2023/12/22 06:51:26;;;;;;;4.33;1.30;;;6.60;99.90;;;;;;4990110;28;20442;-74
2023/12/22 06:53:53;;;;;;;5.00;1.63;;;6.50;99.90;;;;;;4991327;28;20427;-74
2023/12/22 06:56:20;;;;;;;4.80;2.63;;;6.60;99.90;;;;;;4987976;28;20446;-74
2023/12/22 06:58:48;;;;;;;7.40;2.50;;;6.60;99.90;;;;;;4993034;28;20780;-74
2023/12/22 07:01:29;;;;;;;6.27;3.50;;;6.50;99.90;;;;;;4989535;28;20438;-74
2023/12/22 07:03:55;;;;;;;11.37;3.90;;;6.60;99.90;;;;;;4991908;28;21228;-75
2023/12/22 07:06:22;;;;;;;12.77;3.33;;;6.60;99.90;;;;;;4993595;28;20856;-75
2023/12/22 07:09:11;;;;;;;8.90;3.60;;;6.60;99.90;;;;;;4992775;28;20431;-75
2023/12/22 07:11:40;;;;;;;5.00;2.57;;;6.60;99.90;;;;;;4990612;28;20469;-72
2023/12/22 07:14:05;;;;;;;10.50;3.00;;;6.60;99.90;;;;;;4993742;28;20426;-71
2023/12/22 07:16:33;;;;;;;8.10;3.10;;;6.60;99.90;;;;;;4992750;28;20484;-73
2023/12/22 07:18:58;;;;;;;8.40;2.70;;;6.60;99.90;;;;;;5008761;28;20202;-71
2023/12/22 07:21:24;;;;;;;3.83;2.40;;;6.60;99.90;;;;;;4991447;28;20435;-72
2023/12/22 07:23:50;;;;;;;6.60;2.50;;;6.60;99.90;;;;;;4991279;28;20236;-72
2023/12/22 07:26:15;;;;;;;7.77;2.30;;;6.60;99.90;;;;;;4993085;28;20264;-71
2023/12/22 07:28:41;;;;;;;10.47;3.10;;;6.60;99.90;;;;;;4997631;28;20212;-73
2023/12/22 07:31:06;;;;;;;8.63;2.80;;;6.60;99.90;;;;;;4997199;28;20215;-73
2023/12/22 07:33:32;;;;;;;9.17;3.03;;;6.60;99.90;;;;;;4997356;28;20278;-72
2023/12/22 07:35:58;;;;;;;5.83;2.30;;;6.70;99.90;;;;;;5002895;28;20180;-73
2023/12/22 07:38:23;;;;;;;7.00;2.40;;;6.70;99.90;;;;;;4995980;28;20227;-73
2023/12/22 07:40:49;;;;;;;8.73;2.23;;;6.70;99.90;;;;;;4997702;28;20184;-73
2023/12/22 07:43:15;;;;;;;7.37;1.80;;;6.70;99.90;;;;;;4995475;28;20191;-72
2023/12/22 07:45:41;;;;;;;7.03;1.63;;;6.70;99.90;;;;;;4997250;28;20246;-74
2023/12/22 07:48:07;;;;;;;5.83;1.90;;;6.70;99.90;;;;;;4995804;28;20446;-73
2023/12/22 07:50:33;;;;;;;6.13;2.73;;;6.70;99.90;;;;;;4996945;28;20211;-72
2023/12/22 07:52:59;;;;;;;9.00;1.90;;;6.70;99.90;;;;;;4996508;28;20477;-73
2023/12/22 07:55:25;;;;;;;4.73;1.90;;;6.70;99.90;;;;;;4996266;28;20427;-71
2023/12/22 07:57:51;;;;;;;6.80;2.10;;;6.70;99.90;;;;;;4996543;28;20183;-74
2023/12/22 08:00:19;;;;;;;3.37;1.90;;;6.80;99.90;;;;;;5000484;28;21005;-72
2023/12/22 08:02:45;;;;;;;11.73;3.10;;;6.80;99.90;;;;;;5003837;28;20252;-73
2023/12/22 08:05:11;;;;;;;4.40;2.00;;;6.80;99.90;;;;;;5004909;28;21117;-74
2023/12/22 08:07:37;;;;;;;7.40;2.10;;;6.90;99.90;;;;;;5005945;28;21020;-72
2023/12/22 08:10:04;;;;;;;7.97;2.77;;;6.90;99.90;;;;;;5004133;28;20430;-72
2023/12/22 08:12:31;;;;;;;9.47;2.37;;;6.90;99.90;;;;;;5006207;28;20442;-75
2023/12/22 08:14:57;;;;;;;8.60;2.07;;;7.00;99.90;;;;;;5000557;28;20448;-71
2023/12/22 08:17:24;;;;;;;10.00;2.83;;;7.00;99.90;;;;;;4998199;28;20437;-76
2023/12/22 08:19:49;;;;;;;10.33;2.43;;;7.10;99.90;;;;;;4997860;28;20952;-71
2023/12/22 08:22:15;;;;;;;9.07;2.80;;;7.10;99.90;;;;;;4996883;28;20462;-71
2023/12/22 08:24:41;;;;;;;11.00;2.60;;;7.10;99.90;;;;;;4999809;28;20281;-72
2023/12/22 08:27:08;;;;;;;12.47;3.40;;;7.20;99.90;;;;;;4996873;28;20305;-71
2023/12/22 08:29:34;;;;;;;13.47;4.47;;;7.20;99.90;;;;;;4998703;28;20968;-71
2023/12/22 08:32:00;;;;;;;13.93;3.13;;;7.20;99.90;;;;;;4996894;28;20545;-73
2023/12/22 08:34:26;;;;;;;8.30;2.93;;;7.20;99.90;;;;;;4995084;28;20422;-74
2023/12/22 08:36:52;;;;;;;10.90;3.13;;;7.30;99.90;;;;;;4996733;28;20439;-71
2023/12/22 08:39:18;;;;;;;14.40;3.00;;;7.40;99.90;;;;;;4995486;28;21205;-73
2023/12/22 08:41:45;;;;;;;13.63;3.37;;;7.40;99.90;;;;;;4998828;28;20196;-74
2023/12/22 08:44:10;;;;;;;9.47;4.43;;;7.40;99.90;;;;;;4994345;28;20188;-71
2023/12/22 08:46:36;;;;;;;8.93;3.37;;;7.40;99.90;;;;;;4998495;28;20476;-71
2023/12/22 08:49:02;;;;;;;6.50;3.47;;;7.50;99.90;;;;;;4996668;28;20533;-72
2023/12/22 08:51:28;;;;;;;8.67;4.10;;;7.50;99.90;;;;;;4998716;28;20215;-71
2023/12/22 08:53:54;;;;;;;10.80;3.80;;;7.50;99.90;;;;;;4997274;28;20473;-73
2023/12/22 08:56:23;;;;;;;13.57;3.80;;;7.50;99.90;;;;;;4994215;28;20816;-73
2023/12/22 08:58:51;;;;;;;11.00;4.27;;;7.50;99.90;;;;;;4997862;28;20434;-74
2023/12/22 09:01:17;;;;;;;20.00;4.40;;;7.60;99.90;;;;;;4995921;28;20882;-74
2023/12/22 09:03:46;;;;;;;16.53;4.77;;;7.60;99.90;;;;;;4999072;28;20972;-72
2023/12/22 09:06:22;;;;;;;12.67;4.37;;;7.60;99.90;;;;;;4993998;28;20474;-72
2023/12/22 09:08:48;;;;;;;15.87;3.70;;;7.70;99.90;;;;;;4997889;28;20430;-71
2023/12/22 09:11:17;;;;;;;13.23;3.83;;;7.70;99.90;;;;;;4991411;28;20449;-74
2023/12/22 09:13:43;;;;;;;19.43;4.10;;;7.70;99.90;;;;;;4991087;28;20450;-72
2023/12/22 09:16:10;;;;;;;11.50;4.73;;;7.70;99.90;;;;;;4995866;28;20443;-71
2023/12/22 09:18:35;;;;;;;19.20;5.27;;;7.70;99.90;;;;;;4998272;28;20186;-73
2023/12/22 09:21:02;;;;;;;17.33;4.90;;;7.70;99.90;;;;;;4994247;28;20431;-75
2023/12/22 09:23:28;;;;;;;14.80;4.47;;;7.70;99.90;;;;;;4999224;28;20183;-74
2023/12/22 09:25:54;;;;;;;12.77;3.83;;;7.80;99.90;;;;;;4996026;28;20510;-71
2023/12/22 09:28:20;;;;;;;13.13;3.70;;;7.80;99.90;;;;;;4994323;28;20512;-72
2023/12/22 09:30:46;;;;;;;5.03;2.10;;;7.80;99.90;;;;;;4998731;28;20517;-73
2023/12/22 09:33:12;;;;;;;10.23;3.07;;;7.80;99.90;;;;;;4997018;28;20184;-71
2023/12/22 09:35:41;;;;;;;3.63;2.43;;;7.70;99.90;;;;;;4999294;28;20187;-72
2023/12/22 09:38:12;;;;;;;7.30;2.10;;;7.70;99.90;;;;;;4996472;28;20426;-74
2023/12/22 09:40:38;;;;;;;5.53;2.20;;;7.70;99.90;;;;;;4999112;28;21053;-74
2023/12/22 09:43:06;;;;;;;5.83;2.07;;;7.70;99.90;;;;;;4996305;28;20467;-74
2023/12/22 09:45:33;;;;;;;3.60;1.77;;;7.60;99.90;;;;;;4996894;28;20900;-71
2023/12/22 09:48:00;;;;;;;4.83;1.70;;;7.60;99.90;;;;;;4995388;28;20477;-72
2023/12/22 09:50:27;;;;;;;4.33;1.47;;;7.60;99.90;;;;;;4996274;28;20427;-72
2023/12/22 09:52:53;;;;;;;7.73;2.00;;;7.60;99.90;;;;;;4996599;28;20473;-73
2023/12/22 09:55:21;;;;;;;4.33;1.70;;;7.60;99.90;;;;;;4995582;28;20422;-73
2023/12/22 09:57:47;;;;;;;5.47;2.27;;;7.60;99.90;;;;;;4996627;28;20775;-73
2023/12/22 10:00:15;;;;;;;7.10;2.00;;;7.50;99.90;;;;;;4995593;28;20471;-72
2023/12/22 10:02:42;;;;;;;5.90;1.90;;;7.50;99.90;;;;;;4996987;28;20966;-72
2023/12/22 10:05:10;;;;;;;5.60;2.10;;;7.50;99.90;;;;;;4996384;28;20438;-72
2023/12/22 10:07:35;;;;;;;6.63;2.00;;;7.50;99.90;;;;;;4997595;28;20523;-71
2023/12/22 10:10:04;;;;;;;4.40;2.80;;;7.50;99.90;;;;;;4996386;28;20426;-75
2023/12/22 10:12:32;;;;;;;5.23;2.50;;;7.40;99.90;;;;;;5000327;28;20441;-71
2023/12/22 10:14:59;;;;;;;6.20;2.47;;;7.50;99.90;;;;;;4996012;28;20494;-72
2023/12/22 10:17:25;;;;;;;4.73;2.33;;;7.40;99.90;;;;;;4999554;28;20470;-72
2023/12/22 10:19:51;;;;;;;7.50;2.70;;;7.50;99.90;;;;;;4996748;28;20474;-75
2023/12/22 10:22:17;;;;;;;5.07;3.33;;;7.50;99.90;;;;;;4994164;28;20468;-71
2023/12/22 10:24:50;;;;;;;6.97;2.93;;;7.40;99.90;;;;;;5000281;28;20184;-73
2023/12/22 10:27:23;;;;;;;6.30;2.93;;;7.50;99.90;;;;;;4995655;28;20477;-71
2023/12/22 10:29:50;;;;;;;8.70;3.60;;;7.40;99.90;;;;;;4997525;28;20511;-73
2023/12/22 10:32:15;;;;;;;7.97;4.40;;;7.40;99.90;;;;;;4995605;28;20515;-73
2023/12/22 10:34:41;;;;;;;8.20;3.80;;;7.40;99.90;;;;;;4997860;28;20427;-71
2023/12/22 10:37:08;;;;;;;6.57;3.57;;;7.50;99.90;;;;;;4996312;28;20554;-72
2023/12/22 10:39:36;;;;;;;13.07;4.93;;;7.40;99.90;;;;;;4998720;28;20199;-71
2023/12/22 10:42:02;;;;;;;7.00;3.77;;;7.50;99.90;;;;;;4996648;28;20439;-72
2023/12/22 10:44:29;;;;;;;8.47;4.70;;;7.50;99.90;;;;;;4999855;28;20564;-72
2023/12/22 10:46:55;;;;;;;10.30;4.93;;;7.50;99.90;;;;;;4996358;28;20467;-71
2023/12/22 10:49:22;;;;;;;9.37;4.97;;;7.50;99.90;;;;;;4996539;28;20507;-73
2023/12/22 10:51:49;;;;;;;10.00;5.60;;;7.60;99.90;;;;;;4998699;28;20430;-74
2023/12/22 10:54:14;;;;;;;14.53;6.13;;;7.60;99.90;;;;;;4995476;28;20459;-74
2023/12/22 10:56:41;;;;;;;15.67;5.63;;;7.60;99.90;;;;;;4997775;28;21429;-72
2023/12/22 10:59:08;;;;;;;10.47;5.07;;;7.70;99.90;;;;;;4996746;28;20191;-72
2023/12/22 11:01:38;;;;;;;8.20;4.30;;;7.70;99.90;;;;;;5000183;28;20522;-74
2023/12/22 11:04:16;;;;;;;11.70;3.90;;;7.70;99.90;;;;;;5017985;28;20466;-72
2023/12/22 11:06:44;;;;;;;6.20;3.03;;;7.70;99.90;;;;;;5004731;28;20465;-74
2023/12/22 11:09:10;;;;;;;6.40;3.30;;;7.80;99.90;;;;;;5003823;28;20525;-73
2023/12/22 11:11:40;;;;;;;6.47;2.37;;;7.80;99.90;;;;;;5005957;28;20457;-71
2023/12/22 11:14:07;;;;;;;6.83;2.57;;;7.80;99.90;;;;;;5003183;28;20430;-71
2023/12/22 11:16:34;;;;;;;2.47;1.67;;;7.80;99.90;;;;;;4999701;28;20423;-72
2023/12/22 11:19:01;;;;;;;5.70;1.90;;;7.80;99.90;;;;;;5003640;28;20442;-72
2023/12/22 11:21:28;;;;;;;2.33;1.20;;;7.80;99.90;;;;;;5003730;28;20461;-71
2023/12/22 11:23:55;;;;;;;2.00;1.17;;;7.80;99.90;;;;;;5003211;28;20463;-73
2023/12/22 11:26:22;;;;;;;2.20;1.07;;;7.80;99.90;;;;;;5003488;28;20473;-73
2023/12/22 11:28:50;;;;;;;2.40;1.10;;;7.80;99.90;;;;;;5002831;28;20966;-72
2023/12/22 11:31:17;;;;;;;3.77;1.37;;;7.80;99.90;;;;;;5003354;28;20892;-72
2023/12/22 11:33:50;;;;;;;2.97;1.30;;;7.80;99.90;;;;;;5004247;28;20423;-73
2023/12/22 11:36:18;;;;;;;4.03;1.57;;;7.80;99.90;;;;;;5002874;28;20476;-72
2023/12/22 11:38:45;;;;;;;3.70;1.40;;;7.80;99.90;;;;;;5000391;28;20435;-74
2023/12/22 11:41:15;;;;;;;3.23;1.63;;;7.80;99.90;;;;;;4996225;28;20442;-73
2023/12/22 11:43:43;;;;;;;3.30;1.53;;;7.80;99.90;;;;;;4996851;28;20434;-71
2023/12/22 11:46:08;;;;;;;2.70;1.13;;;7.80;99.90;;;;;;4996249;28;20452;-73
2023/12/22 11:48:34;;;;;;;4.17;1.70;;;7.80;99.90;;;;;;4997519;28;20430;-72
2023/12/22 11:51:01;;;;;;;2.17;1.23;;;7.80;99.90;;;;;;4992779;28;20434;-71
2023/12/22 11:53:34;;;;;;;2.03;1.17;;;7.80;99.90;;;;;;4994736;28;20205;-71
2023/12/22 11:56:05;;;;;;;5.00;1.37;;;7.80;99.90;;;;;;4996868;28;20473;-73
2023/12/22 11:58:51;;;;;;;2.17;1.10;;;7.80;99.90;;;;;;4995696;28;20861;-73
2023/12/22 12:01:17;;;;;;;3.23;1.43;;;7.90;99.90;;;;;;4990652;28;20446;-73
2023/12/22 12:03:51;;;;;;;2.40;1.77;;;7.90;99.90;;;;;;4996046;28;20462;-72
2023/12/22 12:06:25;;;;;;;2.50;1.30;;;7.90;99.90;;;;;;4995280;28;21303;-71
2023/12/22 12:08:53;;;;;;;4.23;1.83;;;7.90;99.90;;;;;;4996429;28;21305;-74
2023/12/22 12:11:23;;;;;;;3.00;1.80;;;7.90;99.90;;;;;;4997354;28;20462;-73
2023/12/22 12:13:50;;;;;;;2.70;1.80;;;7.90;99.90;;;;;;4994571;28;20845;-74
2023/12/22 12:16:22;;;;;;;4.50;1.70;;;7.90;99.90;;;;;;4992578;28;20510;-73
2023/12/22 12:18:48;;;;;;;3.07;1.83;;;7.90;99.90;;;;;;4992138;28;20430;-74
2023/12/22 12:21:16;;;;;;;3.20;2.60;;;7.90;99.90;;;;;;4993031;28;20453;-74
2023/12/22 12:23:42;;;;;;;3.07;2.30;;;7.90;99.90;;;;;;4993288;28;20792;-73
2023/12/22 12:26:08;;;;;;;6.80;2.90;;;7.90;99.90;;;;;;5091628;27;20424;-71
2023/12/22 12:28:36;;;;;;;3.17;2.80;;;7.90;99.90;;;;;;4992092;28;20453;-73
2023/12/22 12:31:09;;;;;;;3.87;2.77;;;7.90;99.90;;;;;;4990065;28;21286;-74
2023/12/22 12:33:38;;;;;;;3.40;2.70;;;8.00;99.90;;;;;;4993181;28;20445;-73
2023/12/22 12:36:04;;;;;;;3.10;2.80;;;8.00;99.90;;;;;;4991966;28;20456;-74
2023/12/22 12:38:58;;;;;;;4.90;2.70;;;8.00;99.90;;;;;;4993880;28;20427;-74
2023/12/22 12:41:33;;;;;;;3.60;2.90;;;8.00;99.90;;;;;;4992625;28;20525;-71
2023/12/22 12:43:59;;;;;;;4.13;2.40;;;8.10;99.90;;;;;;4989945;28;20769;-71
2023/12/22 12:46:38;;;;;;;3.40;2.27;;;8.10;99.90;;;;;;4993876;28;20551;-72
2023/12/22 12:49:08;;;;;;;4.20;2.30;;;8.20;99.90;;;;;;4992638;28;20464;-70
2023/12/22 12:51:38;;;;;;;3.40;1.67;;;8.20;99.90;;;;;;4995391;28;20445;-72
2023/12/22 12:54:05;;;;;;;3.00;1.60;;;8.30;99.90;;;;;;4993936;28;20422;-71